createdAt,value
2023-02-06T00:02:11.010Z,14.53
2023-02-06T00:04:38.765Z,13.50
2023-02-06T00:07:06.347Z,13.37
2023-02-06T00:09:33.977Z,10.77
2023-02-06T00:12:01.550Z,11.80
2023-02-06T00:14:29.200Z,10.60
2023-02-06T00:16:56.825Z,10.27
2023-02-06T00:19:24.508Z,12.10
2023-02-06T00:21:52.064Z,8.67
2023-02-06T00:24:19.795Z,11.67
2023-02-06T00:26:47.320Z,8.60
2023-02-06T00:29:14.916Z,8.17
2023-02-06T00:31:42.616Z,10.37
2023-02-06T00:34:10.318Z,9.03
2023-02-06T00:36:38.061Z,9.83
2023-02-06T00:39:05.756Z,9.90
2023-02-06T00:41:33.321Z,10.27
2023-02-06T00:44:00.925Z,8.33
2023-02-06T00:46:29.089Z,7.33
2023-02-06T00:48:56.663Z,9.33
2023-02-06T00:51:24.212Z,12.13
2023-02-06T00:53:51.862Z,9.77
2023-02-06T00:56:20.343Z,9.80
2023-02-06T00:58:48.094Z,10.73
2023-02-06T01:01:15.759Z,11.03
2023-02-06T01:03:43.434Z,9.10
2023-02-06T01:06:10.991Z,11.57
2023-02-06T01:08:38.618Z,9.37
2023-02-06T01:11:15.628Z,10.07
2023-02-06T01:13:43.536Z,8.20
2023-02-06T01:16:15.606Z,7.83
2023-02-06T01:18:43.858Z,7.77
2023-02-06T01:21:23.122Z,10.13
2023-02-06T01:23:54.199Z,9.73
2023-02-06T01:26:26.922Z,8.50
2023-02-06T01:28:55.431Z,8.30
2023-02-06T01:31:28.619Z,12.63
2023-02-06T01:33:58.719Z,9.97
2023-02-06T01:36:27.159Z,7.23
2023-02-06T01:38:57.421Z,7.53
2023-02-06T01:41:25.397Z,6.63
2023-02-06T01:44:15.693Z,6.73
2023-02-06T01:46:47.538Z,9.53
2023-02-06T01:49:24.723Z,8.30
2023-02-06T01:51:57.577Z,9.27
2023-02-06T01:54:25.447Z,8.60
2023-02-06T01:56:59.408Z,6.47
2023-02-06T01:59:28.513Z,4.57
2023-02-06T02:01:56.603Z,8.07
2023-02-06T02:04:28.239Z,5.33
2023-02-06T02:07:10.922Z,6.70
2023-02-06T02:09:38.693Z,5.00
2023-02-06T02:12:07.031Z,8.23
2023-02-06T02:14:37.180Z,5.63
2023-02-06T02:17:16.826Z,6.20
2023-02-06T02:20:37.203Z,10.37
2023-02-06T02:23:47.676Z,6.53
2023-02-06T02:26:37.064Z,6.33
2023-02-06T02:29:35.730Z,7.30
2023-02-06T02:32:25.108Z,5.77
2023-02-06T02:35:17.252Z,7.07
2023-02-06T02:38:25.113Z,6.53
2023-02-06T02:41:31.437Z,7.50
2023-02-06T02:44:17.200Z,5.40
2023-02-06T02:46:49.365Z,4.17
2023-02-06T02:49:27.484Z,6.00
2023-02-06T02:51:55.897Z,7.97
2023-02-06T02:54:23.541Z,5.83
2023-02-06T02:56:51.311Z,6.00
2023-02-06T02:59:33.726Z,10.03
2023-02-06T03:02:20.067Z,5.10
2023-02-06T03:04:57.706Z,7.87
2023-02-06T03:07:37.209Z,7.00
2023-02-06T03:10:15.891Z,6.13
2023-02-06T03:12:52.937Z,5.13
2023-02-06T03:16:00.925Z,6.07
2023-02-06T03:18:41.187Z,5.87
2023-02-06T03:21:17.973Z,7.57
2023-02-06T03:23:48.383Z,7.00
2023-02-06T03:26:19.905Z,4.70
2023-02-06T03:28:55.761Z,4.70
2023-02-06T03:31:47.735Z,5.43
2023-02-06T03:34:25.906Z,5.87
2023-02-06T03:36:53.752Z,6.00
2023-02-06T03:39:22.732Z,8.83
2023-02-06T03:41:52.140Z,5.20
2023-02-06T03:44:25.238Z,8.20
2023-02-06T03:46:55.006Z,10.73
2023-02-06T03:49:27.859Z,7.00
2023-02-06T03:52:14.813Z,11.77
2023-02-06T03:54:54.033Z,10.17
2023-02-06T03:57:23.980Z,12.67
2023-02-06T03:59:51.809Z,9.37
2023-02-06T04:02:21.437Z,9.53
2023-02-06T04:04:49.099Z,4.83
2023-02-06T04:07:27.067Z,7.20
2023-02-06T04:09:54.986Z,8.07
2023-02-06T04:12:24.044Z,8.07
2023-02-06T04:14:52.870Z,11.17
2023-02-06T04:17:38.534Z,8.63
2023-02-06T04:20:09.308Z,9.57
2023-02-06T04:22:36.959Z,8.67
2023-02-06T04:25:04.790Z,7.83
2023-02-06T04:27:32.578Z,7.90
2023-02-06T04:30:01.372Z,13.37
2023-02-06T04:32:29.109Z,8.57
2023-02-06T04:34:57.581Z,9.57
2023-02-06T04:37:25.172Z,9.33
2023-02-06T04:39:52.925Z,9.33
2023-02-06T04:42:20.697Z,9.87
2023-02-06T04:44:48.291Z,10.73
2023-02-06T04:47:15.873Z,10.97
2023-02-06T04:49:43.590Z,12.37
2023-02-06T04:52:11.267Z,12.27
2023-02-06T04:54:38.869Z,13.60
2023-02-06T04:57:06.665Z,10.40
2023-02-06T04:59:34.443Z,13.20
2023-02-06T05:02:02.132Z,13.53
2023-02-06T05:04:29.794Z,14.60
2023-02-06T05:06:57.386Z,14.87
2023-02-06T05:09:24.962Z,13.00
2023-02-06T05:11:52.607Z,14.30
2023-02-06T05:14:20.370Z,18.17
2023-02-06T05:16:49.519Z,18.53
2023-02-06T05:19:17.165Z,20.80
2023-02-06T05:21:44.893Z,17.73
2023-02-06T05:24:12.859Z,16.73
2023-02-06T05:26:40.494Z,14.13
2023-02-06T05:29:08.226Z,16.50
2023-02-06T05:31:36.165Z,21.00
2023-02-06T05:34:03.908Z,14.40
2023-02-06T05:36:31.507Z,18.83
2023-02-06T05:38:59.226Z,19.53
2023-02-06T05:41:26.901Z,15.87
2023-02-06T05:43:54.704Z,17.17
2023-02-06T05:46:22.357Z,18.60
2023-02-06T05:48:50.086Z,18.83
2023-02-06T05:51:17.657Z,19.13
2023-02-06T05:53:45.367Z,19.10
2023-02-06T06:07:38.120Z,21.03
2023-02-06T06:10:06.754Z,17.50
2023-02-06T06:12:34.366Z,19.00
2023-02-06T06:15:01.983Z,23.03
2023-02-06T06:17:29.566Z,23.10
2023-02-06T06:19:57.234Z,21.93
2023-02-06T06:22:24.922Z,19.23
2023-02-06T06:24:56.756Z,16.70
2023-02-06T06:27:24.976Z,20.27
2023-02-06T06:29:52.530Z,19.03
2023-02-06T06:32:20.540Z,19.87
2023-02-06T06:34:48.130Z,18.50
2023-02-06T06:37:15.938Z,26.13
2023-02-06T06:39:43.493Z,20.20
2023-02-06T06:42:11.156Z,22.73
2023-02-06T06:44:38.876Z,22.33
2023-02-06T06:47:06.563Z,23.87
2023-02-06T06:49:34.255Z,22.30
2023-02-06T06:52:23.009Z,21.47
2023-02-06T06:54:52.903Z,21.07
2023-02-06T06:57:22.208Z,21.37
2023-02-06T06:59:50.385Z,20.90
2023-02-06T07:02:18.065Z,23.60
2023-02-06T07:04:45.753Z,27.63
2023-02-06T07:07:13.333Z,20.07
2023-02-06T07:09:41.149Z,26.07
2023-02-06T07:12:08.789Z,20.70
2023-02-06T07:14:36.408Z,21.30
2023-02-06T07:17:04.115Z,23.37
2023-02-06T07:19:31.710Z,25.30
2023-02-06T07:21:59.275Z,22.80
2023-02-06T07:24:26.952Z,26.03
2023-02-06T07:26:54.521Z,23.60
2023-02-06T07:29:22.180Z,24.30
2023-02-06T07:31:50.063Z,24.70
2023-02-06T07:34:17.683Z,25.83
2023-02-06T07:36:46.057Z,23.83
2023-02-06T07:39:13.700Z,28.63
2023-02-06T07:41:41.306Z,27.80
2023-02-06T07:44:12.160Z,25.37
2023-02-06T07:46:40.048Z,36.43
2023-02-06T07:49:07.749Z,26.03
2023-02-06T07:51:35.724Z,27.53
2023-02-06T07:54:03.398Z,29.10
2023-02-06T07:56:31.235Z,25.27
2023-02-06T07:58:59.101Z,31.67
2023-02-06T08:01:27.003Z,27.74
2023-02-06T08:03:55.093Z,27.90
2023-02-06T08:06:24.578Z,25.73
2023-02-06T08:08:55.335Z,27.80
2023-02-06T08:11:25.975Z,30.30
2023-02-06T08:13:53.677Z,33.17
2023-02-06T08:16:23.515Z,32.93
2023-02-06T08:18:51.942Z,39.87
2023-02-06T08:21:23.603Z,35.17
2023-02-06T08:23:59.809Z,28.17
2023-02-06T08:26:29.805Z,30.47
2023-02-06T08:29:01.408Z,34.90
2023-02-06T08:31:43.181Z,32.70
2023-02-06T08:36:22.763Z,44.78
2023-02-06T09:12:11.124Z,31.40
2023-02-06T09:14:38.971Z,34.93
2023-02-06T09:17:07.144Z,26.27
2023-02-06T09:19:34.781Z,25.70
2023-02-06T09:26:59.781Z,23.90
2023-02-06T09:47:37.619Z,17.25
2023-02-06T10:34:37.276Z,8.40
